createdAt,value
2023-01-13T00:01:30.093Z,100289.75
2023-01-13T00:03:58.567Z,100291.53
2023-01-13T00:06:27.365Z,100300.19
2023-01-13T00:08:55.791Z,100290.50
2023-01-13T00:11:25.978Z,100293.69
2023-01-13T00:13:54.576Z,100289.13
2023-01-13T00:16:23.030Z,100301.69
2023-01-13T00:18:51.503Z,100291.41
2023-01-13T00:21:22.979Z,100292.34
2023-01-13T00:23:53.787Z,100285.75
2023-01-13T00:26:28.100Z,100278.81
2023-01-13T00:28:58.313Z,100276.94
2023-01-13T00:31:28.409Z,100266.66
2023-01-13T00:33:57.961Z,100265.00
2023-01-13T00:36:28.107Z,100265.41
2023-01-13T00:38:57.236Z,100258.66
2023-01-13T00:41:26.813Z,100258.13
2023-01-13T00:43:55.267Z,100249.59
2023-01-13T00:46:23.906Z,100239.31
2023-01-13T00:48:52.900Z,100246.38
2023-01-13T00:51:21.680Z,100249.69
2023-01-13T00:53:51.602Z,100237.72
2023-01-13T00:56:39.344Z,100236.00
2023-01-13T00:59:11.874Z,100239.94
2023-01-13T01:01:41.283Z,100237.56
2023-01-13T01:04:09.953Z,100241.06
2023-01-13T01:06:38.538Z,100247.53
2023-01-13T01:09:07.021Z,100242.69
2023-01-13T01:11:35.531Z,100238.69
2023-01-13T01:14:04.784Z,100246.28
2023-01-13T01:16:34.526Z,100258.47
2023-01-13T01:19:03.892Z,100256.53
2023-01-13T01:21:33.439Z,100256.84
2023-01-13T01:24:03.534Z,100257.97
2023-01-13T01:26:33.018Z,100249.06
2023-01-13T01:29:02.269Z,100251.81
2023-01-13T01:31:33.217Z,100256.06
2023-01-13T01:34:02.093Z,100257.50
2023-01-13T01:36:30.532Z,100252.19
2023-01-13T01:38:59.976Z,100253.88
2023-01-13T01:41:31.981Z,100256.13
2023-01-13T01:44:38.021Z,100259.25
2023-01-13T01:47:06.721Z,100252.94
2023-01-13T01:49:37.886Z,100282.50
2023-01-13T01:52:07.948Z,100264.50
2023-01-13T01:54:46.949Z,100268.09
2023-01-13T01:57:20.664Z,100272.78
2023-01-13T01:59:49.680Z,100275.06
2023-01-13T02:02:18.472Z,100267.38
2023-01-13T02:04:53.382Z,100267.78
2023-01-13T02:07:26.390Z,100275.19
2023-01-13T02:09:57.701Z,100268.41
2023-01-13T02:12:30.001Z,100270.63
2023-01-13T02:15:03.569Z,100267.25
2023-01-13T02:18:02.743Z,100259.84
2023-01-13T02:20:58.938Z,100256.66
2023-01-13T02:24:08.048Z,100267.16
2023-01-13T02:27:17.937Z,100258.34
2023-01-13T02:30:09.915Z,100269.34
2023-01-13T02:32:56.516Z,100259.88
2023-01-13T02:35:37.325Z,100270.13
2023-01-13T02:38:08.444Z,100275.00
2023-01-13T02:40:46.507Z,100278.47
2023-01-13T02:43:44.108Z,100255.97
2023-01-13T02:46:28.129Z,100257.69
2023-01-13T02:49:01.324Z,100254.75
2023-01-13T02:51:32.486Z,100241.84
2023-01-13T02:54:05.186Z,100252.94
2023-01-13T02:56:40.528Z,100249.00
2023-01-13T02:59:10.417Z,100250.38
2023-01-13T03:01:38.919Z,100248.06
2023-01-13T03:04:49.417Z,100241.47
2023-01-13T03:07:58.955Z,100236.50
2023-01-13T03:10:37.719Z,100227.72
2023-01-13T03:13:24.874Z,100223.66
2023-01-13T03:16:20.825Z,100242.88
2023-01-13T03:19:32.332Z,100234.03
2023-01-13T03:22:19.067Z,100235.44
2023-01-13T03:25:02.538Z,100253.28
2023-01-13T03:27:48.981Z,100232.88
2023-01-13T03:30:23.132Z,100234.56
2023-01-13T03:33:01.740Z,100228.16
2023-01-13T03:35:37.929Z,100224.84
2023-01-13T03:38:18.692Z,100242.84
2023-01-13T03:40:54.709Z,100241.16
2023-01-13T03:43:59.417Z,100244.59
2023-01-13T03:46:37.685Z,100233.44
2023-01-13T03:49:08.933Z,100245.94
2023-01-13T03:51:41.110Z,100254.88
2023-01-13T03:54:11.907Z,100238.16
2023-01-13T03:56:47.861Z,100234.63
2023-01-13T03:59:28.478Z,100236.97
2023-01-13T04:02:17.375Z,100237.25
2023-01-13T04:05:09.193Z,100245.59
2023-01-13T04:07:49.799Z,100230.78
2023-01-13T04:10:30.119Z,100235.63
2023-01-13T04:13:14.627Z,100222.41
2023-01-13T04:15:45.120Z,100221.56
2023-01-13T04:18:16.479Z,100226.03
2023-01-13T04:20:47.965Z,100231.59
2023-01-13T04:23:17.922Z,100237.69
2023-01-13T04:25:47.435Z,100224.13
2023-01-13T04:28:16.393Z,100229.56
2023-01-13T04:30:45.935Z,100229.66
2023-01-13T04:33:16.201Z,100236.75
2023-01-13T04:35:46.215Z,100231.19
2023-01-13T04:38:17.691Z,100237.56
2023-01-13T04:40:46.733Z,100231.09
2023-01-13T04:43:15.742Z,100237.03
2023-01-13T04:45:44.457Z,100238.22
2023-01-13T04:48:13.167Z,100240.03
2023-01-13T04:50:41.825Z,100249.09
2023-01-13T04:53:10.744Z,100258.78
2023-01-13T04:55:39.224Z,100238.22
2023-01-13T04:58:09.524Z,100232.09
2023-01-13T05:00:38.200Z,100244.94
2023-01-13T05:03:06.709Z,100237.59
2023-01-13T05:05:35.429Z,100238.16
2023-01-13T05:08:04.734Z,100231.78
2023-01-13T05:10:33.240Z,100230.25
2023-01-13T05:13:20.685Z,100224.28
2023-01-13T05:16:08.705Z,100238.84
2023-01-13T05:18:38.860Z,100233.09
2023-01-13T05:21:27.197Z,100236.25
2023-01-13T05:24:14.316Z,100227.97
2023-01-13T05:26:42.735Z,100214.81
2023-01-13T05:29:11.205Z,100221.91
2023-01-13T05:31:39.641Z,100221.25
2023-01-13T05:34:08.136Z,100223.19
2023-01-13T05:36:36.525Z,100233.84
2023-01-13T05:39:05.256Z,100231.63
2023-01-13T05:41:52.359Z,100234.41
2023-01-13T05:44:20.775Z,100233.38
2023-01-13T05:46:49.883Z,100230.75
2023-01-13T05:49:18.395Z,100241.03
2023-01-13T05:51:46.838Z,100242.81
2023-01-13T05:54:15.297Z,100244.19
2023-01-13T05:56:43.729Z,100251.44
2023-01-13T05:59:12.233Z,100253.56
2023-01-13T06:01:40.658Z,100258.47
2023-01-13T06:04:09.065Z,100256.81
2023-01-13T06:06:37.627Z,100251.31
2023-01-13T06:09:05.969Z,100251.47
2023-01-13T06:11:34.467Z,100254.50
2023-01-13T06:14:02.860Z,100265.78
2023-01-13T06:16:31.429Z,100267.03
2023-01-13T06:19:00.040Z,100275.44
2023-01-13T06:21:28.444Z,100282.84
2023-01-13T06:23:59.001Z,100280.72
2023-01-13T06:26:31.103Z,100287.19
2023-01-13T06:28:59.562Z,100298.50
2023-01-13T06:31:28.631Z,100294.50
2023-01-13T06:34:04.271Z,100305.25
2023-01-13T06:36:43.300Z,100316.41
2023-01-13T06:39:17.183Z,100312.69
2023-01-13T06:42:08.062Z,100316.66
2023-01-13T06:44:36.702Z,100320.84
2023-01-13T06:47:06.205Z,100315.63
2023-01-13T06:49:34.706Z,100312.50
2023-01-13T06:52:03.253Z,100309.28
2023-01-13T06:54:31.858Z,100298.78
2023-01-13T06:57:01.307Z,100290.56
2023-01-13T06:59:30.161Z,100299.72
2023-01-13T07:01:58.765Z,100305.66
2023-01-13T07:04:27.239Z,100310.66
2023-01-13T07:06:56.012Z,100306.00
2023-01-13T07:09:24.479Z,100314.53
2023-01-13T07:11:53.008Z,100321.38
2023-01-13T07:14:39.994Z,100324.03
2023-01-13T07:17:08.465Z,100334.84
2023-01-13T07:19:37.053Z,100323.34
2023-01-13T07:22:05.432Z,100329.78
2023-01-13T07:24:33.799Z,100328.16
2023-01-13T07:27:02.301Z,100348.03
2023-01-13T07:29:30.869Z,100336.28
2023-01-13T07:31:59.526Z,100323.06
2023-01-13T07:34:28.176Z,100343.81
2023-01-13T07:36:56.603Z,100333.69
2023-01-13T07:39:25.212Z,100339.88
2023-01-13T07:42:12.356Z,100338.16
2023-01-13T07:44:40.852Z,100343.94
2023-01-13T07:47:11.108Z,100347.72
2023-01-13T07:49:39.693Z,100345.72
2023-01-13T07:52:08.828Z,100336.94
2023-01-13T07:54:40.994Z,100345.75
2023-01-13T07:57:09.640Z,100339.44
2023-01-13T07:59:38.104Z,100341.97
2023-01-13T08:02:06.943Z,100358.78
2023-01-13T08:04:35.825Z,100369.56
2023-01-13T08:07:05.193Z,100360.31
2023-01-13T08:09:34.027Z,100367.94
2023-01-13T08:12:21.127Z,100371.34
2023-01-13T08:14:51.048Z,100369.03
2023-01-13T08:17:20.608Z,100358.69
2023-01-13T08:19:49.295Z,100367.00
2023-01-13T08:22:17.834Z,100359.63
2023-01-13T08:24:46.377Z,100367.59
2023-01-13T08:27:14.871Z,100371.69
2023-01-13T08:29:43.264Z,100375.06
2023-01-13T08:32:11.701Z,100373.53
2023-01-13T08:34:40.192Z,100366.25
2023-01-13T08:37:08.758Z,100362.09
2023-01-13T08:39:37.266Z,100360.09
2023-01-13T08:42:06.073Z,100377.41
2023-01-13T08:44:34.675Z,100358.75
2023-01-13T08:47:03.323Z,100365.78
2023-01-13T08:49:31.811Z,100376.47
2023-01-13T08:52:00.338Z,100382.75
2023-01-13T08:54:28.838Z,100377.59
2023-01-13T08:56:57.990Z,100378.84
2023-01-13T08:59:26.519Z,100378.84
2023-01-13T09:01:55.206Z,100384.75
2023-01-13T09:04:26.219Z,100379.75
2023-01-13T09:06:55.753Z,100369.31
2023-01-13T09:09:25.390Z,100380.41
2023-01-13T09:12:12.223Z,100375.16
2023-01-13T09:14:40.946Z,100394.47
2023-01-13T09:17:09.325Z,100382.19
2023-01-13T09:19:37.788Z,100383.25
2023-01-13T09:22:06.647Z,100386.75
2023-01-13T09:24:35.078Z,100391.22
2023-01-13T09:27:03.675Z,100387.16
2023-01-13T09:29:32.142Z,100411.47
2023-01-13T09:32:00.717Z,100419.41
2023-01-13T09:34:47.996Z,100439.16
2023-01-13T09:37:16.545Z,100429.06
2023-01-13T09:39:45.142Z,100441.69
2023-01-13T09:42:35.210Z,100422.50
2023-01-13T09:45:25.843Z,100449.75
2023-01-13T09:48:16.100Z,100441.78
2023-01-13T09:51:14.590Z,100434.34
2023-01-13T09:54:07.131Z,100442.50
2023-01-13T09:56:35.488Z,100441.31
2023-01-13T09:59:03.943Z,100443.72
2023-01-13T10:01:41.762Z,100438.28
2023-01-13T10:04:12.067Z,100448.81
2023-01-13T10:06:44.256Z,100442.75
2023-01-13T10:09:14.528Z,100445.59
2023-01-13T10:12:06.376Z,100451.78
2023-01-13T10:14:41.305Z,100438.13
2023-01-13T10:17:44.835Z,100457.34
2023-01-13T10:20:31.459Z,100456.88
2023-01-13T10:23:08.923Z,100458.28
2023-01-13T10:25:40.222Z,100455.50
2023-01-13T10:28:12.246Z,100449.38
2023-01-13T10:30:43.690Z,100451.59
2023-01-13T10:33:22.633Z,100464.97
2023-01-13T10:35:57.008Z,100462.00
2023-01-13T10:38:37.695Z,100467.28
2023-01-13T10:41:17.809Z,100442.22
2023-01-13T10:44:00.987Z,100476.28
2023-01-13T10:46:31.754Z,100473.38
2023-01-13T10:49:36.112Z,100492.72
2023-01-13T10:52:25.421Z,100494.72
2023-01-13T10:54:55.313Z,100499.44
2023-01-13T10:57:28.112Z,100504.03
2023-01-13T10:59:56.653Z,100507.38
2023-01-13T11:02:30.120Z,100490.00
2023-01-13T11:05:09.119Z,100502.91
2023-01-13T11:07:58.042Z,100491.75
2023-01-13T11:10:29.410Z,100493.44
2023-01-13T11:13:18.452Z,100489.00
2023-01-13T11:16:13.153Z,100497.38
2023-01-13T11:19:14.139Z,100497.78
2023-01-13T11:22:07.119Z,100498.56
2023-01-13T11:24:52.890Z,100503.50
2023-01-13T11:27:24.234Z,100513.09
2023-01-13T11:29:55.409Z,100516.59
2023-01-13T11:32:25.102Z,100507.69
2023-01-13T11:35:02.356Z,100524.16
2023-01-13T11:37:33.504Z,100526.91
2023-01-13T11:40:05.790Z,100534.16
2023-01-13T11:42:43.665Z,100528.78
2023-01-13T11:45:19.988Z,100540.84
2023-01-13T11:47:52.102Z,100533.09
2023-01-13T11:50:29.716Z,100537.28
2023-01-13T11:53:31.526Z,100529.91
2023-01-13T11:56:19.317Z,100542.06
2023-01-13T11:59:12.374Z,100531.00
2023-01-13T12:02:04.829Z,100545.19
2023-01-13T12:04:40.837Z,100541.97
2023-01-13T12:07:22.152Z,100554.69
2023-01-13T12:09:57.518Z,100554.25
2023-01-13T12:12:48.934Z,100565.19
2023-01-13T12:15:25.899Z,100569.13
2023-01-13T12:18:19.276Z,100577.22
2023-01-13T12:20:55.854Z,100566.88
2023-01-13T12:23:33.999Z,100572.72
2023-01-13T12:26:10.426Z,100565.47
2023-01-13T12:29:00.721Z,100566.88
2023-01-13T12:31:30.838Z,100577.88
2023-01-13T12:34:19.529Z,100588.72
2023-01-13T12:36:58.549Z,100580.16
2023-01-13T12:39:42.972Z,100562.81
2023-01-13T12:42:45.373Z,100577.38
2023-01-13T12:45:13.733Z,100586.50
2023-01-13T12:47:44.056Z,100583.44
2023-01-13T12:50:21.729Z,100589.00
2023-01-13T12:53:01.347Z,100595.00
2023-01-13T12:55:36.658Z,100605.44
2023-01-13T12:58:12.043Z,100606.44
2023-01-13T13:00:40.577Z,100613.53
2023-01-13T13:03:12.408Z,100620.84
2023-01-13T13:06:02.877Z,100614.47
2023-01-13T13:08:58.155Z,100623.69
2023-01-13T13:11:59.559Z,100625.75
2023-01-13T13:14:37.328Z,100638.53
2023-01-13T13:17:28.603Z,100632.38
2023-01-13T13:19:58.819Z,100639.50
2023-01-13T13:22:27.204Z,100649.16
2023-01-13T13:24:55.818Z,100639.34
2023-01-13T13:28:06.093Z,100652.84
2023-01-13T13:30:43.729Z,100649.75
2023-01-13T13:33:54.488Z,100663.75
2023-01-13T13:36:32.417Z,100671.72
2023-01-13T13:39:28.496Z,100667.53
2023-01-13T13:42:28.257Z,100677.41
2023-01-13T13:45:17.398Z,100669.38
2023-01-13T13:47:45.826Z,100673.19
2023-01-13T13:50:20.501Z,100685.78
2023-01-13T13:52:55.787Z,100685.84
2023-01-13T13:55:29.426Z,100693.47
2023-01-13T13:57:59.292Z,100698.94
2023-01-13T14:00:34.422Z,100684.56
2023-01-13T14:03:17.624Z,100703.22
2023-01-13T14:05:59.389Z,100720.66
2023-01-13T14:08:30.980Z,100720.72
2023-01-13T14:10:59.640Z,100722.28
2023-01-13T14:13:30.141Z,100735.69
2023-01-13T14:16:01.313Z,100733.13
2023-01-13T14:18:33.112Z,100725.88
2023-01-13T14:21:22.233Z,100730.56
2023-01-13T14:23:56.595Z,100742.00
2023-01-13T14:26:31.139Z,100756.91
2023-01-13T14:29:01.860Z,100750.91
2023-01-13T14:31:31.344Z,100751.66
2023-01-13T14:34:03.459Z,100759.41
2023-01-13T14:36:52.044Z,100771.78
2023-01-13T14:39:25.670Z,100777.41
2023-01-13T14:41:54.132Z,100765.69
2023-01-13T14:44:26.980Z,100781.47
2023-01-13T14:46:57.867Z,100764.47
2023-01-13T14:49:31.993Z,100776.56
2023-01-13T14:52:07.333Z,100778.09
2023-01-13T14:54:45.770Z,100784.56
2023-01-13T14:57:32.106Z,100802.41
2023-01-13T15:00:07.982Z,100802.88
2023-01-13T15:02:58.098Z,100811.69
2023-01-13T15:05:26.596Z,100809.56
2023-01-13T15:08:00.172Z,100813.38
2023-01-13T15:10:37.174Z,100829.19
2023-01-13T15:13:07.292Z,100824.84
2023-01-13T15:15:39.341Z,100832.97
2023-01-13T15:18:15.293Z,100851.19
2023-01-13T15:20:44.574Z,100852.28
2023-01-13T15:23:13.221Z,100867.53
2023-01-13T15:25:42.960Z,100873.94
2023-01-13T15:28:23.043Z,100867.84
2023-01-13T15:30:53.560Z,100875.78
2023-01-13T15:33:22.801Z,100883.06
2023-01-13T15:35:53.362Z,100870.50
2023-01-13T15:38:24.004Z,100871.03
2023-01-13T15:40:53.309Z,100877.72
2023-01-13T15:43:42.085Z,100877.38
2023-01-13T15:46:38.358Z,100880.09
2023-01-13T15:49:27.238Z,100882.28
2023-01-13T15:51:55.890Z,100892.81
2023-01-13T15:54:24.831Z,100901.06
2023-01-13T15:56:54.122Z,100890.50
2023-01-13T15:59:26.491Z,100907.31
2023-01-13T16:01:55.062Z,100914.13
2023-01-13T16:04:23.603Z,100912.19
2023-01-13T16:06:52.014Z,100921.22
2023-01-13T16:09:20.497Z,100932.63
2023-01-13T16:11:48.893Z,100920.00
2023-01-13T16:14:17.465Z,100927.69
2023-01-13T16:16:45.962Z,100940.34
2023-01-13T16:19:14.468Z,100925.22
2023-01-13T16:21:42.937Z,100934.69
2023-01-13T16:24:11.489Z,100924.09
2023-01-13T16:26:40.067Z,100924.34
2023-01-13T16:29:12.415Z,100937.81
2023-01-13T16:31:40.862Z,100950.38
2023-01-13T16:34:09.319Z,100954.28
2023-01-13T16:36:37.996Z,100962.28
2023-01-13T16:39:20.308Z,100969.72
2023-01-13T16:41:49.429Z,100961.44
2023-01-13T16:44:18.071Z,100958.75
2023-01-13T16:46:47.517Z,100964.28
2023-01-13T16:49:17.633Z,100960.97
2023-01-13T16:51:46.102Z,100973.88
2023-01-13T16:54:14.563Z,100984.97
2023-01-13T16:56:43.076Z,100985.97
2023-01-13T16:59:14.197Z,100990.50
2023-01-13T17:01:44.913Z,100996.56
2023-01-13T17:04:16.441Z,100986.97
2023-01-13T17:07:00.425Z,100997.56
2023-01-13T17:09:29.410Z,100993.69
2023-01-13T17:11:58.588Z,101001.97
2023-01-13T17:14:27.181Z,101001.22
2023-01-13T17:16:59.164Z,101012.81
2023-01-13T17:19:27.749Z,101010.28
2023-01-13T17:21:56.198Z,101022.53
2023-01-13T17:24:25.937Z,101012.56
2023-01-13T17:26:54.450Z,101013.84
2023-01-13T17:29:25.670Z,101023.09
2023-01-13T17:31:54.413Z,101032.03
2023-01-13T17:34:23.057Z,101024.31
2023-01-13T17:36:51.564Z,101028.47
2023-01-13T17:39:25.503Z,101044.94
2023-01-13T17:41:55.903Z,101041.72
2023-01-13T17:44:24.547Z,101034.41
2023-01-13T17:46:53.012Z,101054.31
2023-01-13T17:49:21.963Z,101052.00
2023-01-13T17:51:51.577Z,101054.59
2023-01-13T17:54:20.273Z,101056.88
2023-01-13T17:56:49.264Z,101072.50
2023-01-13T17:59:19.672Z,101059.25
2023-01-13T18:01:48.410Z,101065.28
2023-01-13T18:04:27.563Z,101069.63
2023-01-13T18:06:56.921Z,101067.63
2023-01-13T18:09:26.398Z,101066.59
2023-01-13T18:11:54.886Z,101065.63
2023-01-13T18:14:23.374Z,101066.25
2023-01-13T18:16:52.005Z,101074.66
2023-01-13T18:19:38.799Z,101057.13
2023-01-13T18:22:27.516Z,101067.94
2023-01-13T18:25:14.485Z,101071.81
2023-01-13T18:27:42.920Z,101080.88
2023-01-13T18:30:12.552Z,101080.00
2023-01-13T18:32:41.018Z,101090.00
2023-01-13T18:35:10.425Z,101083.91
2023-01-13T18:37:42.256Z,101093.72
2023-01-13T18:40:13.244Z,101101.94
2023-01-13T18:42:51.153Z,101097.94
2023-01-13T18:45:28.318Z,101097.63
2023-01-13T18:47:59.640Z,101099.53
2023-01-13T18:50:29.239Z,101109.63
2023-01-13T18:52:58.682Z,101112.72
2023-01-13T18:55:28.620Z,101119.53
2023-01-13T18:57:57.749Z,101117.72
2023-01-13T19:00:27.374Z,101115.56
2023-01-13T19:05:36.259Z,101127.34
2023-01-13T19:08:05.584Z,101130.94
2023-01-13T19:10:34.175Z,101139.84
2023-01-13T19:13:02.817Z,101136.03
2023-01-13T19:15:31.493Z,101148.53
2023-01-13T19:18:00.319Z,101156.34
2023-01-13T19:20:28.722Z,101150.44
2023-01-13T19:22:57.213Z,101140.84
2023-01-13T19:25:25.768Z,101133.53
2023-01-13T19:27:54.260Z,101149.91
2023-01-13T19:30:22.767Z,101158.63
2023-01-13T19:32:51.382Z,101154.53
2023-01-13T19:35:20.114Z,101142.75
2023-01-13T19:37:49.475Z,101162.53
2023-01-13T19:40:18.158Z,101165.06
2023-01-13T19:43:05.104Z,101167.72
2023-01-13T19:45:35.461Z,101189.28
2023-01-13T19:48:05.855Z,101176.31
2023-01-13T19:50:41.489Z,101189.50
2023-01-13T19:53:17.412Z,101193.63
2023-01-13T19:55:48.525Z,101184.25
2023-01-13T19:58:23.039Z,101186.00
2023-01-13T20:00:55.293Z,101172.75
2023-01-13T20:03:25.824Z,101184.97
2023-01-13T20:05:54.636Z,101191.25
2023-01-13T20:08:23.309Z,101184.00
2023-01-13T20:11:11.734Z,101204.06
2023-01-13T20:13:40.117Z,101218.72
2023-01-13T20:16:09.031Z,101222.72
2023-01-13T20:18:37.566Z,101216.13
2023-01-13T20:21:07.429Z,101210.69
2023-01-13T20:23:36.156Z,101221.88
2023-01-13T20:26:07.651Z,101223.56
2023-01-13T20:28:38.840Z,101217.38
2023-01-13T20:31:09.789Z,101226.69
2023-01-13T20:33:38.871Z,101225.63
2023-01-13T20:36:08.541Z,101216.84
2023-01-13T20:38:37.749Z,101232.31
2023-01-13T20:41:26.277Z,101224.31
2023-01-13T20:43:55.018Z,101226.41
2023-01-13T20:46:23.460Z,101227.84
2023-01-13T20:48:52.119Z,101226.00
2023-01-13T20:51:20.593Z,101221.50
2023-01-13T20:53:49.049Z,101229.78
2023-01-13T20:56:17.437Z,101244.78
2023-01-13T20:58:46.113Z,101249.00
2023-01-13T21:01:14.856Z,101253.56
2023-01-13T21:03:43.385Z,101259.28
2023-01-13T21:06:11.873Z,101249.19
2023-01-13T21:08:40.356Z,101236.44
2023-01-13T21:11:10.509Z,101253.78
2023-01-13T21:13:57.610Z,101260.84
2023-01-13T21:16:26.067Z,101266.00
2023-01-13T21:19:10.743Z,101271.41
2023-01-13T21:21:39.283Z,101274.28
2023-01-13T21:24:10.971Z,101278.91
2023-01-13T21:26:40.710Z,101283.25
2023-01-13T21:29:09.284Z,101285.41
2023-01-13T21:31:37.922Z,101288.19
2023-01-13T21:34:06.302Z,101296.41
2023-01-13T21:36:37.939Z,101297.97
2023-01-13T21:39:06.632Z,101289.19
2023-01-13T21:41:53.535Z,101282.88
2023-01-13T21:44:40.814Z,101285.50
2023-01-13T21:47:36.100Z,101302.00
2023-01-13T21:50:10.001Z,101292.16
2023-01-13T21:52:42.816Z,101288.22
2023-01-13T21:55:25.117Z,101297.16
2023-01-13T21:57:55.153Z,101294.03
2023-01-13T22:00:31.090Z,101299.28
2023-01-13T22:03:02.674Z,101283.69
2023-01-13T22:05:31.515Z,101287.84
2023-01-13T22:08:00.128Z,101305.59
2023-01-13T22:10:30.492Z,101298.97
2023-01-13T22:13:22.336Z,101310.47
2023-01-13T22:15:50.892Z,101321.31
2023-01-13T22:18:19.335Z,101324.53
2023-01-13T22:20:49.115Z,101326.78
2023-01-13T22:23:17.558Z,101331.47
2023-01-13T22:25:46.099Z,101332.59
2023-01-13T22:28:23.807Z,101332.81
2023-01-13T22:30:53.532Z,101333.69
2023-01-13T22:33:21.896Z,101342.81
2023-01-13T22:35:56.759Z,101347.94
2023-01-13T22:38:25.201Z,101347.38
2023-01-13T22:40:58.020Z,101345.56
2023-01-13T22:43:30.064Z,101353.81
2023-01-13T22:46:03.910Z,101350.88
2023-01-13T22:48:33.227Z,101360.69
2023-01-13T22:51:13.781Z,101355.84
2023-01-13T22:53:42.934Z,101363.47
2023-01-13T22:56:17.584Z,101356.78
2023-01-13T22:58:46.296Z,101357.41
2023-01-13T23:01:17.374Z,101366.81
2023-01-13T23:03:49.571Z,101372.13
2023-01-13T23:06:19.602Z,101370.19
2023-01-13T23:08:48.539Z,101372.41
2023-01-13T23:11:19.697Z,101373.69
2023-01-13T23:13:48.127Z,101373.84
2023-01-13T23:16:21.100Z,101372.34
2023-01-13T23:18:50.023Z,101373.19
2023-01-13T23:21:24.723Z,101373.28
2023-01-13T23:23:53.828Z,101371.38
2023-01-13T23:26:22.535Z,101360.84
2023-01-13T23:28:51.206Z,101355.78
2023-01-13T23:31:21.654Z,101342.78
2023-01-13T23:33:50.087Z,101349.38
2023-01-13T23:36:24.270Z,101347.63
2023-01-13T23:38:53.590Z,101335.72
2023-01-13T23:41:23.917Z,101344.16
2023-01-13T23:44:01.375Z,101344.63
2023-01-13T23:46:31.355Z,101340.41
2023-01-13T23:49:01.792Z,101345.75
2023-01-13T23:51:30.817Z,101345.78
2023-01-13T23:53:59.549Z,101349.41
2023-01-13T23:56:30.653Z,101347.44
2023-01-13T23:58:59.291Z,101347.16
